sensor_id;sensor_type;location;lat;lon;timestamp;pressure;altitude;pressure_sealevel;temperature;humidity
15750;BME280;7976;52.526;13.326;2023-03-30T00:01:05;100676.72;;;11.02;78.21
15750;BME280;7976;52.526;13.326;2023-03-30T00:03:37;100671.50;;;11.02;78.45
15750;BME280;7976;52.526;13.326;2023-03-30T00:06:05;100672.44;;;11.01;78.56
15750;BME280;7976;52.526;13.326;2023-03-30T00:08:33;100675.03;;;11.01;78.73
15750;BME280;7976;52.526;13.326;2023-03-30T00:11:00;100672.50;;;10.99;79.05
15750;BME280;7976;52.526;13.326;2023-03-30T00:13:28;100670.81;;;10.98;79.39
15750;BME280;7976;52.526;13.326;2023-03-30T00:15:55;100668.19;;;10.98;79.12
15750;BME280;7976;52.526;13.326;2023-03-30T00:18:22;100663.03;;;10.95;79.31
15750;BME280;7976;52.526;13.326;2023-03-30T00:20:51;100663.78;;;10.99;79.38
15750;BME280;7976;52.526;13.326;2023-03-30T00:23:19;100654.22;;;10.98;79.86
15750;BME280;7976;52.526;13.326;2023-03-30T00:25:46;100648.19;;;10.96;80.00
15750;BME280;7976;52.526;13.326;2023-03-30T00:28:13;100649.06;;;10.96;79.97
15750;BME280;7976;52.526;13.326;2023-03-30T00:30:40;100643.09;;;10.93;80.14
15750;BME280;7976;52.526;13.326;2023-03-30T00:33:08;100637.84;;;10.93;80.72
15750;BME280;7976;52.526;13.326;2023-03-30T00:35:35;100637.78;;;10.94;80.92
15750;BME280;7976;52.526;13.326;2023-03-30T00:38:03;100642.16;;;10.94;81.20
15750;BME280;7976;52.526;13.326;2023-03-30T00:40:33;100633.47;;;10.93;81.53
15750;BME280;7976;52.526;13.326;2023-03-30T00:43:02;100637.97;;;10.90;81.56
15750;BME280;7976;52.526;13.326;2023-03-30T00:45:30;100632.84;;;10.87;82.14
15750;BME280;7976;52.526;13.326;2023-03-30T00:48:03;100621.66;;;10.83;82.29
15750;BME280;7976;52.526;13.326;2023-03-30T00:50:36;100625.13;;;10.84;82.62
15750;BME280;7976;52.526;13.326;2023-03-30T00:53:10;100614.59;;;10.85;83.05
15750;BME280;7976;52.526;13.326;2023-03-30T00:55:43;100604.97;;;10.86;83.22
15750;BME280;7976;52.526;13.326;2023-03-30T00:58:13;100594.63;;;10.83;83.56
15750;BME280;7976;52.526;13.326;2023-03-30T01:00:42;100593.03;;;10.79;83.50
15750;BME280;7976;52.526;13.326;2023-03-30T01:03:17;100591.47;;;10.75;83.78
15750;BME280;7976;52.526;13.326;2023-03-30T01:05:45;100585.50;;;10.71;83.73
15750;BME280;7976;52.526;13.326;2023-03-30T01:08:15;100582.91;;;10.71;83.80
15750;BME280;7976;52.526;13.326;2023-03-30T01:10:45;100572.50;;;10.70;83.77
15750;BME280;7976;52.526;13.326;2023-03-30T01:13:14;100563.97;;;10.65;83.92
15750;BME280;7976;52.526;13.326;2023-03-30T01:15:56;100566.59;;;10.65;84.01
15750;BME280;7976;52.526;13.326;2023-03-30T01:18:40;100558.81;;;10.63;84.30
15750;BME280;7976;52.526;13.326;2023-03-30T01:25:27;100540.72;;;10.57;84.52
15750;BME280;7976;52.526;13.326;2023-03-30T01:28:31;100527.69;;;10.56;84.93
15750;BME280;7976;52.526;13.326;2023-03-30T01:31:28;100531.25;;;10.55;85.16
15750;BME280;7976;52.526;13.326;2023-03-30T01:34:34;100528.72;;;10.52;85.18
15750;BME280;7976;52.526;13.326;2023-03-30T01:37:54;100523.63;;;10.49;85.27
15750;BME280;7976;52.526;13.326;2023-03-30T01:40:33;100521.13;;;10.46;85.54
15750;BME280;7976;52.526;13.326;2023-03-30T01:43:12;100521.22;;;10.44;85.43
15750;BME280;7976;52.526;13.326;2023-03-30T01:45:43;100506.47;;;10.42;85.52
15750;BME280;7976;52.526;13.326;2023-03-30T01:48:20;100505.72;;;10.40;85.60
15750;BME280;7976;52.526;13.326;2023-03-30T01:50:59;100510.06;;;10.39;85.91
15750;BME280;7976;52.526;13.326;2023-03-30T01:53:37;100505.72;;;10.40;85.95
15750;BME280;7976;52.526;13.326;2023-03-30T01:56:13;100497.91;;;10.38;85.95
15750;BME280;7976;52.526;13.326;2023-03-30T01:58:47;100509.09;;;10.42;85.97
15750;BME280;7976;52.526;13.326;2023-03-30T02:01:17;100494.19;;;10.44;85.98
15750;BME280;7976;52.526;13.326;2023-03-30T02:03:50;100493.28;;;10.45;85.98
15750;BME280;7976;52.526;13.326;2023-03-30T02:06:26;100502.91;;;10.44;85.81
15750;BME280;7976;52.526;13.326;2023-03-30T02:08:57;100510.81;;;10.43;85.93
15750;BME280;7976;52.526;13.326;2023-03-30T02:11:29;100490.75;;;10.43;86.19
15750;BME280;7976;52.526;13.326;2023-03-30T02:13:59;100490.69;;;10.45;86.08
15750;BME280;7976;52.526;13.326;2023-03-30T02:16:33;100495.84;;;10.46;86.08
15750;BME280;7976;52.526;13.326;2023-03-30T02:19:02;100480.97;;;10.47;86.06
15750;BME280;7976;52.526;13.326;2023-03-30T02:21:31;100476.59;;;10.47;86.06
15750;BME280;7976;52.526;13.326;2023-03-30T02:24:05;100479.28;;;10.46;86.00
15750;BME280;7976;52.526;13.326;2023-03-30T02:26:34;100472.22;;;10.48;86.09
15750;BME280;7976;52.526;13.326;2023-03-30T02:29:02;100465.25;;;10.48;85.87
15750;BME280;7976;52.526;13.326;2023-03-30T02:31:29;100458.22;;;10.49;85.94
15750;BME280;7976;52.526;13.326;2023-03-30T02:34:13;100461.69;;;10.49;85.99
15750;BME280;7976;52.526;13.326;2023-03-30T02:37:06;100459.09;;;10.49;85.89
15750;BME280;7976;52.526;13.326;2023-03-30T02:39:51;100459.09;;;10.49;85.94
15750;BME280;7976;52.526;13.326;2023-03-30T02:42:52;100436.47;;;10.48;86.09
15750;BME280;7976;52.526;13.326;2023-03-30T02:45:38;100439.09;;;10.48;85.95
15750;BME280;7976;52.526;13.326;2023-03-30T02:48:27;100426.00;;;10.48;86.00
15750;BME280;7976;52.526;13.326;2023-03-30T02:51:11;100434.69;;;10.49;85.80
15750;BME280;7976;52.526;13.326;2023-03-30T02:54:20;100421.66;;;10.47;85.93
15750;BME280;7976;52.526;13.326;2023-03-30T02:57:11;100426.97;;;10.46;85.82
15750;BME280;7976;52.526;13.326;2023-03-30T02:59:51;100410.34;;;10.47;86.11
15750;BME280;7976;52.526;13.326;2023-03-30T03:02:26;100409.59;;;10.45;85.91
15750;BME280;7976;52.526;13.326;2023-03-30T03:05:08;100409.66;;;10.43;86.10
15750;BME280;7976;52.526;13.326;2023-03-30T03:07:55;100401.75;;;10.45;86.23
15750;BME280;7976;52.526;13.326;2023-03-30T03:10:22;100399.13;;;10.45;86.11
15750;BME280;7976;52.526;13.326;2023-03-30T03:12:49;100393.03;;;10.44;86.47
15750;BME280;7976;52.526;13.326;2023-03-30T03:15:17;100396.50;;;10.45;86.28
15750;BME280;7976;52.526;13.326;2023-03-30T03:18:00;100397.25;;;10.47;86.52
15750;BME280;7976;52.526;13.326;2023-03-30T03:20:27;100397.22;;;10.48;86.27
15750;BME280;7976;52.526;13.326;2023-03-30T03:22:55;100395.44;;;10.49;86.48
15750;BME280;7976;52.526;13.326;2023-03-30T03:25:22;100396.31;;;10.49;86.40
15750;BME280;7976;52.526;13.326;2023-03-30T03:27:56;100385.91;;;10.48;86.26
15750;BME280;7976;52.526;13.326;2023-03-30T03:30:26;100383.28;;;10.48;86.48
15750;BME280;7976;52.526;13.326;2023-03-30T03:33:03;100378.19;;;10.45;86.27
15750;BME280;7976;52.526;13.326;2023-03-30T03:35:32;100376.41;;;10.45;86.33
15750;BME280;7976;52.526;13.326;2023-03-30T03:38:02;100369.34;;;10.47;86.46
15750;BME280;7976;52.526;13.326;2023-03-30T03:40:29;100364.06;;;10.49;86.51
15750;BME280;7976;52.526;13.326;2023-03-30T03:42:56;100371.81;;;10.50;86.64
15750;BME280;7976;52.526;13.326;2023-03-30T03:45:23;100368.25;;;10.53;86.55
15750;BME280;7976;52.526;13.326;2023-03-30T03:47:57;100362.22;;;10.51;86.47
15750;BME280;7976;52.526;13.326;2023-03-30T03:50:36;100356.13;;;10.50;86.43
15750;BME280;7976;52.526;13.326;2023-03-30T03:53:03;100349.94;;;10.53;86.58
15750;BME280;7976;52.526;13.326;2023-03-30T03:55:30;100343.69;;;10.55;86.62
15750;BME280;7976;52.526;13.326;2023-03-30T03:57:59;100328.00;;;10.55;86.29
15750;BME280;7976;52.526;13.326;2023-03-30T04:00:26;100333.25;;;10.55;86.32
15750;BME280;7976;52.526;13.326;2023-03-30T04:02:56;100335.09;;;10.53;86.12
15750;BME280;7976;52.526;13.326;2023-03-30T04:05:24;100328.06;;;10.54;86.36
15750;BME280;7976;52.526;13.326;2023-03-30T04:07:51;100322.03;;;10.53;86.49
15750;BME280;7976;52.526;13.326;2023-03-30T04:10:21;100315.00;;;10.54;86.38
15750;BME280;7976;52.526;13.326;2023-03-30T04:12:57;100308.88;;;10.55;86.56
15750;BME280;7976;52.526;13.326;2023-03-30T04:15:42;100305.38;;;10.54;86.30
15750;BME280;7976;52.526;13.326;2023-03-30T04:18:30;100304.66;;;10.51;86.26
15750;BME280;7976;52.526;13.326;2023-03-30T04:21:24;100304.59;;;10.52;86.36
15750;BME280;7976;52.526;13.326;2023-03-30T04:24:12;100306.25;;;10.55;86.12
15750;BME280;7976;52.526;13.326;2023-03-30T04:26:58;100301.91;;;10.54;86.15
15750;BME280;7976;52.526;13.326;2023-03-30T04:30:00;100305.38;;;10.54;86.51
15750;BME280;7976;52.526;13.326;2023-03-30T04:33:00;100303.56;;;10.56;86.24
15750;BME280;7976;52.526;13.326;2023-03-30T04:35:57;100295.78;;;10.55;86.15
15750;BME280;7976;52.526;13.326;2023-03-30T04:38:50;100287.16;;;10.53;86.58
15750;BME280;7976;52.526;13.326;2023-03-30T04:41:48;100287.06;;;10.54;86.43
15750;BME280;7976;52.526;13.326;2023-03-30T04:44:37;100278.22;;;10.57;86.59
15750;BME280;7976;52.526;13.326;2023-03-30T04:47:17;100286.94;;;10.57;86.32
15750;BME280;7976;52.526;13.326;2023-03-30T04:50:04;100282.63;;;10.56;86.29
15750;BME280;7976;52.526;13.326;2023-03-30T04:52:51;100286.06;;;10.57;86.35
15750;BME280;7976;52.526;13.326;2023-03-30T04:55:48;100283.59;;;10.54;86.33
15750;BME280;7976;52.526;13.326;2023-03-30T04:58:29;100287.88;;;10.56;86.32
15750;BME280;7976;52.526;13.326;2023-03-30T05:01:25;100294.72;;;10.59;86.53
15750;BME280;7976;52.526;13.326;2023-03-30T05:04:18;100292.09;;;10.59;86.54
15750;BME280;7976;52.526;13.326;2023-03-30T05:07:04;100279.66;;;10.64;86.34
15750;BME280;7976;52.526;13.326;2023-03-30T05:09:54;100279.66;;;10.64;86.32
15750;BME280;7976;52.526;13.326;2023-03-30T05:12:40;100262.19;;;10.64;86.42
15750;BME280;7976;52.526;13.326;2023-03-30T05:15:26;100261.34;;;10.64;86.24
15750;BME280;7976;52.526;13.326;2023-03-30T05:18:30;100249.97;;;10.65;86.36
15750;BME280;7976;52.526;13.326;2023-03-30T05:21:14;100229.94;;;10.64;86.30
15750;BME280;7976;52.526;13.326;2023-03-30T05:23:54;100226.44;;;10.65;86.24
15750;BME280;7976;52.526;13.326;2023-03-30T05:26:42;100229.03;;;10.65;86.21
15750;BME280;7976;52.526;13.326;2023-03-30T05:29:24;100221.94;;;10.67;86.11
15750;BME280;7976;52.526;13.326;2023-03-30T05:32:10;100213.34;;;10.65;86.23
15750;BME280;7976;52.526;13.326;2023-03-30T05:34:37;100225.63;;;10.63;86.10
15750;BME280;7976;52.526;13.326;2023-03-30T05:37:22;100235.41;;;10.59;86.14
15750;BME280;7976;52.526;13.326;2023-03-30T05:39:59;100237.22;;;10.57;86.16
15750;BME280;7976;52.526;13.326;2023-03-30T05:42:51;100232.94;;;10.56;86.11
15750;BME280;7976;52.526;13.326;2023-03-30T05:45:33;100234.75;;;10.54;86.08
15750;BME280;7976;52.526;13.326;2023-03-30T05:48:09;100231.22;;;10.55;86.16
15750;BME280;7976;52.526;13.326;2023-03-30T05:50:46;100227.69;;;10.56;86.17
15750;BME280;7976;52.526;13.326;2023-03-30T05:53:31;100213.69;;;10.57;86.22
15750;BME280;7976;52.526;13.326;2023-03-30T05:56:13;100218.00;;;10.58;85.99
15750;BME280;7976;52.526;13.326;2023-03-30T05:58:55;100222.38;;;10.58;85.85
15750;BME280;7976;52.526;13.326;2023-03-30T06:01:41;100219.69;;;10.59;85.93
15750;BME280;7976;52.526;13.326;2023-03-30T06:04:07;100210.81;;;10.63;85.91
15750;BME280;7976;52.526;13.326;2023-03-30T06:06:35;100196.72;;;10.66;85.74
15750;BME280;7976;52.526;13.326;2023-03-30T06:09:02;100194.66;;;10.72;85.99
15750;BME280;7976;52.526;13.326;2023-03-30T06:11:31;100190.91;;;10.78;85.75
15750;BME280;7976;52.526;13.326;2023-03-30T06:14:18;100189.72;;;10.85;85.22
15750;BME280;7976;52.526;13.326;2023-03-30T06:17:04;100192.19;;;10.88;84.98
15750;BME280;7976;52.526;13.326;2023-03-30T06:19:31;100183.31;;;10.90;85.02
15750;BME280;7976;52.526;13.326;2023-03-30T06:22:01;100187.56;;;10.93;84.88
15750;BME280;7976;52.526;13.326;2023-03-30T06:24:38;100184.72;;;10.97;84.48
15750;BME280;7976;52.526;13.326;2023-03-30T06:27:06;100176.63;;;11.02;84.51
15750;BME280;7976;52.526;13.326;2023-03-30T06:29:35;100175.59;;;11.06;84.35
15750;BME280;7976;52.526;13.326;2023-03-30T06:32:03;100176.38;;;11.08;84.02
15750;BME280;7976;52.526;13.326;2023-03-30T06:35:06;100170.97;;;11.11;83.98
15750;BME280;7976;52.526;13.326;2023-03-30T06:37:34;100182.06;;;11.16;83.67
15750;BME280;7976;52.526;13.326;2023-03-30T06:40:01;100177.31;;;11.24;83.68
15750;BME280;7976;52.526;13.326;2023-03-30T06:42:33;100175.16;;;11.32;83.58
15750;BME280;7976;52.526;13.326;2023-03-30T06:45:17;100182.56;;;11.41;83.29
15750;BME280;7976;52.526;13.326;2023-03-30T06:47:44;100173.72;;;11.44;83.46
15750;BME280;7976;52.526;13.326;2023-03-30T06:50:11;100181.34;;;11.48;83.04
15750;BME280;7976;52.526;13.326;2023-03-30T06:53:11;100174.25;;;11.50;82.61
15750;BME280;7976;52.526;13.326;2023-03-30T06:55:43;100167.91;;;11.54;82.77
15750;BME280;7976;52.526;13.326;2023-03-30T06:58:16;100161.63;;;11.58;82.46
15750;BME280;7976;52.526;13.326;2023-03-30T07:00:46;100160.41;;;11.65;82.12
15750;BME280;7976;52.526;13.326;2023-03-30T07:03:33;100160.09;;;11.71;81.98
15750;BME280;7976;52.526;13.326;2023-03-30T07:06:16;100162.53;;;11.74;81.79
15750;BME280;7976;52.526;13.326;2023-03-30T07:08:45;100153.78;;;11.75;81.72
15750;BME280;7976;52.526;13.326;2023-03-30T07:11:17;100138.03;;;11.75;81.54
15750;BME280;7976;52.526;13.326;2023-03-30T07:13:44;100135.50;;;11.74;81.39
15750;BME280;7976;52.526;13.326;2023-03-30T07:16:13;100134.25;;;11.81;81.61
15750;BME280;7976;52.526;13.326;2023-03-30T07:18:40;100147.56;;;11.93;81.07
15750;BME280;7976;52.526;13.326;2023-03-30T07:21:07;100140.75;;;12.06;80.99
15750;BME280;7976;52.526;13.326;2023-03-30T07:23:37;100144.41;;;12.19;81.05
15750;BME280;7976;52.526;13.326;2023-03-30T07:26:05;100128.19;;;12.28;80.36
15750;BME280;7976;52.526;13.326;2023-03-30T07:28:57;100123.78;;;12.44;80.17
15750;BME280;7976;52.526;13.326;2023-03-30T07:31:39;100123.47;;;12.50;79.99
15750;BME280;7976;52.526;13.326;2023-03-30T07:34:09;100122.53;;;12.51;80.09
15750;BME280;7976;52.526;13.326;2023-03-30T07:36:40;100116.41;;;12.51;80.11
15750;BME280;7976;52.526;13.326;2023-03-30T07:39:07;100120.66;;;12.53;79.95
15750;BME280;7976;52.526;13.326;2023-03-30T07:41:37;100123.13;;;12.56;79.64
15750;BME280;7976;52.526;13.326;2023-03-30T07:44:04;100119.91;;;12.67;79.49
15750;BME280;7976;52.526;13.326;2023-03-30T07:46:34;100119.88;;;12.83;79.28
15750;BME280;7976;52.526;13.326;2023-03-30T07:49:03;100109.72;;;12.92;79.36
15750;BME280;7976;52.526;13.326;2023-03-30T07:51:30;100107.66;;;12.97;79.24
15750;BME280;7976;52.526;13.326;2023-03-30T07:54:09;100100.66;;;12.98;78.82
15750;BME280;7976;52.526;13.326;2023-03-30T07:56:49;100113.59;;;13.01;78.67
15750;BME280;7976;52.526;13.326;2023-03-30T07:59:18;100101.25;;;13.03;78.50
15750;BME280;7976;52.526;13.326;2023-03-30T08:01:46;100107.00;;;13.09;78.35
15750;BME280;7976;52.526;13.326;2023-03-30T08:04:38;100116.28;;;13.15;78.46
15750;BME280;7976;52.526;13.326;2023-03-30T08:07:06;100108.06;;;13.21;78.06
15750;BME280;7976;52.526;13.326;2023-03-30T08:09:35;100112.19;;;13.25;77.74
15750;BME280;7976;52.526;13.326;2023-03-30T08:12:02;100108.47;;;13.29;77.29
15750;BME280;7976;52.526;13.326;2023-03-30T08:14:29;100112.25;;;13.39;77.41
15750;BME280;7976;52.526;13.326;2023-03-30T08:16:57;100097.44;;;13.52;77.36
15750;BME280;7976;52.526;13.326;2023-03-30T08:19:25;100093.97;;;13.65;77.29
15750;BME280;7976;52.526;13.326;2023-03-30T08:21:53;100100.00;;;13.81;77.21
15750;BME280;7976;52.526;13.326;2023-03-30T08:24:21;100090.53;;;13.93;76.70
15750;BME280;7976;52.526;13.326;2023-03-30T08:26:48;100085.63;;;14.01;76.61
15750;BME280;7976;52.526;13.326;2023-03-30T08:29:15;100080.09;;;14.06;76.70
15750;BME280;7976;52.526;13.326;2023-03-30T08:31:43;100070.22;;;14.09;76.27
15750;BME280;7976;52.526;13.326;2023-03-30T08:34:11;100068.13;;;14.14;76.25
15750;BME280;7976;52.526;13.326;2023-03-30T08:36:39;100066.91;;;14.20;76.60
15750;BME280;7976;52.526;13.326;2023-03-30T08:39:06;100066.44;;;14.27;76.64
15750;BME280;7976;52.526;13.326;2023-03-30T08:44:51;100075.09;;;14.43;76.43
15750;BME280;7976;52.526;13.326;2023-03-30T08:47:25;100073.72;;;14.50;76.14
15750;BME280;7976;52.526;13.326;2023-03-30T08:50:05;100066.94;;;14.60;75.19
15750;BME280;7976;52.526;13.326;2023-03-30T08:52:35;100057.31;;;14.73;74.27
15750;BME280;7976;52.526;13.326;2023-03-30T08:55:03;100051.22;;;14.85;74.26
15750;BME280;7976;52.526;13.326;2023-03-30T08:57:46;100049.28;;;15.01;74.53
15750;BME280;7976;52.526;13.326;2023-03-30T09:00:28;100054.34;;;15.17;74.33
15750;BME280;7976;52.526;13.326;2023-03-30T09:03:07;100049.63;;;15.35;74.26
15750;BME280;7976;52.526;13.326;2023-03-30T09:05:47;100054.53;;;15.53;74.12
15750;BME280;7976;52.526;13.326;2023-03-30T09:08:20;100052.41;;;15.71;73.01
15750;BME280;7976;52.526;13.326;2023-03-30T09:10:53;100043.41;;;15.86;71.65
15750;BME280;7976;52.526;13.326;2023-03-30T09:13:27;100052.19;;;15.99;71.18
15750;BME280;7976;52.526;13.326;2023-03-30T09:16:02;100053.22;;;16.09;71.34
15750;BME280;7976;52.526;13.326;2023-03-30T09:18:38;100042.09;;;16.16;71.36
15750;BME280;7976;52.526;13.326;2023-03-30T09:21:11;100044.91;;;16.26;70.69
15750;BME280;7976;52.526;13.326;2023-03-30T09:23:40;100045.56;;;16.29;69.53
15750;BME280;7976;52.526;13.326;2023-03-30T09:26:19;100029.50;;;16.33;68.98
15750;BME280;7976;52.526;13.326;2023-03-30T09:28:57;100032.75;;;16.36;68.14
15750;BME280;7976;52.526;13.326;2023-03-30T09:31:35;100044.78;;;16.40;67.78
15750;BME280;7976;52.526;13.326;2023-03-30T09:34:14;100036.44;;;16.46;67.59
15750;BME280;7976;52.526;13.326;2023-03-30T09:36:55;100037.91;;;16.50;67.60
15750;BME280;7976;52.526;13.326;2023-03-30T09:39:26;100042.03;;;16.54;67.62
15750;BME280;7976;52.526;13.326;2023-03-30T09:42:19;100049.97;;;16.54;67.02
15750;BME280;7976;52.526;13.326;2023-03-30T09:44:52;100050.91;;;16.53;67.13
15750;BME280;7976;52.526;13.326;2023-03-30T09:47:24;100052.72;;;16.53;67.23
15750;BME280;7976;52.526;13.326;2023-03-30T09:49:57;100048.25;;;16.53;67.45
15750;BME280;7976;52.526;13.326;2023-03-30T09:52:28;100050.91;;;16.53;67.28
15750;BME280;7976;52.526;13.326;2023-03-30T09:55:15;100043.72;;;16.55;67.13
15750;BME280;7976;52.526;13.326;2023-03-30T09:57:43;100044.34;;;16.59;67.72
15750;BME280;7976;52.526;13.326;2023-03-30T10:00:25;100051.09;;;16.63;67.42
15750;BME280;7976;52.526;13.326;2023-03-30T10:02:55;100051.53;;;16.57;66.69
15750;BME280;7976;52.526;13.326;2023-03-30T10:05:22;100051.75;;;16.54;67.03
15750;BME280;7976;52.526;13.326;2023-03-30T10:07:56;100048.59;;;16.49;66.79
15750;BME280;7976;52.526;13.326;2023-03-30T10:10:31;100062.03;;;16.46;66.88
15750;BME280;7976;52.526;13.326;2023-03-30T10:13:07;100056.09;;;16.42;67.05
15750;BME280;7976;52.526;13.326;2023-03-30T10:15:39;100054.50;;;16.40;67.07
15750;BME280;7976;52.526;13.326;2023-03-30T10:18:22;100063.28;;;16.40;67.50
15750;BME280;7976;52.526;13.326;2023-03-30T10:20:52;100064.94;;;16.41;67.19
15750;BME280;7976;52.526;13.326;2023-03-30T10:23:21;100059.47;;;16.44;67.65
15750;BME280;7976;52.526;13.326;2023-03-30T10:25:49;100068.13;;;16.46;68.34
15750;BME280;7976;52.526;13.326;2023-03-30T10:28:19;100058.44;;;16.47;67.49
15750;BME280;7976;52.526;13.326;2023-03-30T10:30:56;100066.84;;;16.52;67.37
15750;BME280;7976;52.526;13.326;2023-03-30T10:33:24;100074.44;;;16.56;67.92
15750;BME280;7976;52.526;13.326;2023-03-30T10:35:53;100063.69;;;16.59;67.43
15750;BME280;7976;52.526;13.326;2023-03-30T10:38:23;100065.13;;;16.63;67.86
15750;BME280;7976;52.526;13.326;2023-03-30T10:40:59;100057.47;;;16.71;67.66
15750;BME280;7976;52.526;13.326;2023-03-30T10:43:30;100053.44;;;16.78;67.11
15750;BME280;7976;52.526;13.326;2023-03-30T10:46:06;100053.38;;;16.91;67.61
15750;BME280;7976;52.526;13.326;2023-03-30T10:48:55;100041.03;;;17.02;67.57
15750;BME280;7976;52.526;13.326;2023-03-30T10:51:37;100040.34;;;17.11;67.37
15750;BME280;7976;52.526;13.326;2023-03-30T10:54:16;100032.91;;;17.16;66.87
15750;BME280;7976;52.526;13.326;2023-03-30T10:56:50;100026.19;;;17.23;66.96
15750;BME280;7976;52.526;13.326;2023-03-30T10:59:42;100028.16;;;17.32;66.55
15750;BME280;7976;52.526;13.326;2023-03-30T11:02:41;100035.09;;;17.33;64.81
15750;BME280;7976;52.526;13.326;2023-03-30T11:05:15;100034.16;;;17.34;65.44
15750;BME280;7976;52.526;13.326;2023-03-30T11:07:50;100036.69;;;17.36;64.83
15750;BME280;7976;52.526;13.326;2023-03-30T11:10:25;100034.16;;;17.34;64.84
15750;BME280;7976;52.526;13.326;2023-03-30T11:13:00;100038.47;;;17.35;65.43
15750;BME280;7976;52.526;13.326;2023-03-30T11:15:33;100043.91;;;17.34;65.36
15750;BME280;7976;52.526;13.326;2023-03-30T11:18:13;100030.53;;;17.35;65.65
15750;BME280;7976;52.526;13.326;2023-03-30T11:20:48;100033.81;;;17.39;66.07
15750;BME280;7976;52.526;13.326;2023-03-30T11:23:24;100023.09;;;17.40;66.28
15750;BME280;7976;52.526;13.326;2023-03-30T11:26:00;100024.91;;;17.40;66.18
15750;BME280;7976;52.526;13.326;2023-03-30T11:28:52;100031.97;;;17.28;66.29
15750;BME280;7976;52.526;13.326;2023-03-30T11:31:42;100023.78;;;17.20;66.89
15750;BME280;7976;52.526;13.326;2023-03-30T11:34:19;100023.16;;;17.17;66.44
15750;BME280;7976;52.526;13.326;2023-03-30T11:37:00;100011.06;;;17.25;66.74
15750;BME280;7976;52.526;13.326;2023-03-30T11:39:33;100017.06;;;17.38;66.64
15750;BME280;7976;52.526;13.326;2023-03-30T11:42:16;100015.44;;;17.48;66.43
15750;BME280;7976;52.526;13.326;2023-03-30T11:44:46;99999.00;;;17.56;66.79
15750;BME280;7976;52.526;13.326;2023-03-30T11:47:42;99995.97;;;17.61;66.04
15750;BME280;7976;52.526;13.326;2023-03-30T11:50:27;99981.75;;;17.62;66.30
15750;BME280;7976;52.526;13.326;2023-03-30T11:53:12;99985.88;;;17.66;66.48
15750;BME280;7976;52.526;13.326;2023-03-30T11:56:03;99981.31;;;17.68;66.66
15750;BME280;7976;52.526;13.326;2023-03-30T11:58:37;99980.31;;;17.69;66.48
15750;BME280;7976;52.526;13.326;2023-03-30T12:01:46;99973.84;;;17.73;66.44
15750;BME280;7976;52.526;13.326;2023-03-30T12:04:25;99959.28;;;17.78;66.02
15750;BME280;7976;52.526;13.326;2023-03-30T12:06:57;99943.75;;;17.85;65.89
15750;BME280;7976;52.526;13.326;2023-03-30T12:09:28;99950.47;;;17.89;65.40
15750;BME280;7976;52.526;13.326;2023-03-30T12:12:07;99953.25;;;17.98;65.35
15750;BME280;7976;52.526;13.326;2023-03-30T12:14:52;99935.78;;;18.07;65.38
15750;BME280;7976;52.526;13.326;2023-03-30T12:17:38;99943.22;;;18.13;65.11
15750;BME280;7976;52.526;13.326;2023-03-30T12:20:20;99942.81;;;18.17;64.90
15750;BME280;7976;52.526;13.326;2023-03-30T12:22:57;99930.03;;;18.22;64.87
15750;BME280;7976;52.526;13.326;2023-03-30T12:25:33;99925.09;;;18.29;65.60
15750;BME280;7976;52.526;13.326;2023-03-30T12:28:12;99924.34;;;18.38;65.54
15750;BME280;7976;52.526;13.326;2023-03-30T12:30:53;99914.09;;;18.44;64.30
15750;BME280;7976;52.526;13.326;2023-03-30T12:33:27;99905.88;;;18.47;64.41
15750;BME280;7976;52.526;13.326;2023-03-30T12:35:58;99892.63;;;18.47;64.30
15750;BME280;7976;52.526;13.326;2023-03-30T12:38:33;99882.31;;;18.44;64.23
15750;BME280;7976;52.526;13.326;2023-03-30T12:41:08;99879.78;;;18.43;64.35
15750;BME280;7976;52.526;13.326;2023-03-30T12:44:22;99882.69;;;18.40;64.17
15750;BME280;7976;52.526;13.326;2023-03-30T12:47:08;99867.97;;;18.47;63.65
15750;BME280;7976;52.526;13.326;2023-03-30T12:49:56;99856.72;;;18.75;63.75
15750;BME280;7976;52.526;13.326;2023-03-30T12:52:39;99861.72;;;18.99;62.41
15750;BME280;7976;52.526;13.326;2023-03-30T12:55:26;99841.13;;;19.12;62.45
15750;BME280;7976;52.526;13.326;2023-03-30T12:58:12;99850.63;;;19.14;62.38
15750;BME280;7976;52.526;13.326;2023-03-30T13:01:20;99853.41;;;19.13;61.47
15750;BME280;7976;52.526;13.326;2023-03-30T13:03:58;99836.22;;;19.07;61.58
15750;BME280;7976;52.526;13.326;2023-03-30T13:06:31;99833.56;;;19.07;62.14
15750;BME280;7976;52.526;13.326;2023-03-30T13:09:29;99827.25;;;18.99;61.70
15750;BME280;7976;52.526;13.326;2023-03-30T13:12:37;99821.81;;;19.00;61.82
15750;BME280;7976;52.526;13.326;2023-03-30T13:15:31;99814.28;;;19.05;61.32
15750;BME280;7976;52.526;13.326;2023-03-30T13:18:01;99811.53;;;19.16;61.01
15750;BME280;7976;52.526;13.326;2023-03-30T13:20:34;99815.16;;;19.15;61.25
15750;BME280;7976;52.526;13.326;2023-03-30T13:23:25;99807.84;;;18.98;61.12
15750;BME280;7976;52.526;13.326;2023-03-30T13:26:04;99809.13;;;18.73;61.42
15750;BME280;7976;52.526;13.326;2023-03-30T13:28:53;99810.78;;;18.54;61.88
15750;BME280;7976;52.526;13.326;2023-03-30T13:31:41;99807.50;;;18.41;62.53
15750;BME280;7976;52.526;13.326;2023-03-30T13:34:22;99803.66;;;18.34;62.63
15750;BME280;7976;52.526;13.326;2023-03-30T13:37:03;99814.53;;;18.31;62.51
15750;BME280;7976;52.526;13.326;2023-03-30T13:39:40;99831.22;;;18.22;62.57
15750;BME280;7976;52.526;13.326;2023-03-30T13:42:48;99844.03;;;18.06;63.52
15750;BME280;7976;52.526;13.326;2023-03-30T13:45:34;99865.00;;;17.87;64.85
15750;BME280;7976;52.526;13.326;2023-03-30T13:48:23;99926.94;;;17.52;68.34
15750;BME280;7976;52.526;13.326;2023-03-30T13:50:57;99948.13;;;17.07;71.94
15750;BME280;7976;52.526;13.326;2023-03-30T13:53:30;99991.22;;;16.38;73.77